Latest Weather Observations for Keith West

IDS60801

Issued at 6:35 am CDT Saturday 1 November 2014 (issued every 30 minutes, with the page automatically refreshed every 10 minutes)

About weather observations | Map of weather stations | Latest weather observations for SA | Other Formats
Station Details ID: 025557 Name: MUNKORA Lat: -36.11 Lon: 140.33 Height: 27.0 m
Data from the previous 72 hours. | See also: Recent months for locations in South Australia
Date/Time
CDT
Temp
°C
App
Temp
°C
Dew
Point
Rel
Hum
%
Delta-T
°C
Wind Press
QNH
hPa
Press
MSL
hPa
Rain
since 9 am
mm
Dir
 
Spd
km/h
Gust
km/h
Spd
kts
Gust
kts
01/06:30am 10.6 8.1 6.7 77 1.8 W 9 19 5 10 1008.3 1008.3 1.6
01/06:00am 10.1 6.7 6.1 76 1.9 SW 13 17 7 9 1007.9 1007.9 1.6
01/05:30am 12.1 8.1 9.1 82 1.5 WSW 20 28 11 15 1007.4 1007.4 1.6
01/05:00am 12.2 8.7 10.1 87 1.1 WSW 19 30 10 16 1006.7 1006.7 1.6
01/04:30am 12.2 6.3 10.6 90 0.8 SW 32 44 17 24 1005.9 1005.9 1.6
01/04:00am 12.9 9.6 11.6 92 0.7 WSW 20 28 11 15 1005.3 1005.3 1.2
01/03:30am 12.9 9.7 11.3 90 0.8 W 19 26 10 14 1005.0 1005.0 1.0
01/03:00am 13.4 11.4 11.6 89 1.0 WNW 13 19 7 10 1004.8 1004.8 0.8
01/02:30am 13.4 11.0 11.5 88 1.0 W 15 22 8 12 1004.2 1004.2 0.8
01/02:00am 13.4 10.3 11.5 88 1.0 W 19 24 10 13 1004.2 1004.2 0.8
01/01:30am 13.7 10.5 11.8 88 1.0 W 20 30 11 16 1004.1 1004.1 0.8
01/01:00am 14.1 11.0 12.1 88 1.1 WSW 20 32 11 17 1004.0 1004.0 0.8
01/12:30am 14.0 11.8 12.2 89 1.0 WSW 15 20 8 11 1004.2 1004.2 0.8
01/12:00am 13.9 13.4 11.9 88 1.1 SW 6 7 3 4 1003.4 1003.4 0.8
 
Date/Time
CDT
Temp
°C
App
Temp
°C
Dew
Point
Rel
Hum
%
Delta-T
°C
Wind Press
QNH
hPa
Press
MSL
hPa
Rain
since 9 am
mm
Dir
 
Spd
km/h
Gust
km/h
Spd
kts
Gust
kts
31/11:30pm 14.2 14.1 12.1 87 1.1 WSW 4 6 2 3 1003.9 1003.9 0.8
31/11:00pm 14.5 13.6 11.3 81 1.7 SW 7 11 4 6 1004.4 1004.4 0.2
31/10:30pm 15.5 12.1 10.5 72 2.7 SW 19 26 10 14 1004.7 1004.7 0.0
31/10:00pm 15.9 10.9 11.1 73 2.6 SW 28 43 15 23 1004.6 1004.6 0.0
31/09:30pm 15.9 12.0 12.1 78 2.1 SW 24 39 13 21 1004.0 1004.0 0.0
31/09:00pm 16.5 12.3 12.5 77 2.2 SW 26 39 14 21 1003.4 1003.4 0.0
31/08:30pm 16.6 11.8 12.9 79 2.1 SW 30 43 16 23 1002.3 1002.3 0.0
31/08:00pm 17.6 12.3 13.1 75 2.5 SW 33 44 18 24 1002.0 1002.0 0.0
31/07:30pm 19.1 15.0 12.6 66 3.7 SW 26 43 14 23 1000.7 1000.7 0.0
31/07:00pm 22.1 16.7 9.6 45 6.7 WSW 28 35 15 19 999.9 999.9 0.0
31/06:30pm 25.1 19.6 7.7 33 9.3 SW 26 35 14 19 999.1 999.0 0.0
31/06:00pm 27.6 21.6 5.2 24 11.6 WSW 26 35 14 19 998.6 998.5 0.0
31/05:30pm 27.3 19.4 4.4 23 11.7 WSW 35 50 19 27 998.4 998.3 0.0
31/05:11pm 31.1 23.1 1.4 15 14.6 WSW 33 44 18 24 998.0 997.9 0.0
31/05:00pm 33.2 24.2 0.0 12 16.2 W 37 48 20 26 998.0 997.9 0.0
31/04:30pm 35.5 27.9 0.6 11 17.6 W 30 44 16 24 997.7 997.6 0.0
31/04:00pm 34.7 28.7 1.1 12 16.9 NNW 22 35 12 19 998.0 997.9 0.0
31/03:34pm 36.4 29.3 1.2 11 17.9 WNW 28 46 15 25 998.2 998.1 0.0
31/03:30pm 35.4 28.6 0.5 11 17.5 NW 26 46 14 25 998.3 998.2 0.0
31/03:00pm 35.6 27.4 -0.7 10 17.9 WNW 32 43 17 23 999.1 999.0 0.0
31/02:30pm 35.9 28.1 -0.5 10 18.0 NNW 30 50 16 27 999.9 999.9 0.0
31/02:26pm 36.0 27.9 -0.4 10 18.0 NNW 32 50 17 27 1000.0 1000.0 0.0
31/02:00pm 35.4 26.7 -0.8 10 17.7 NNW 35 50 19 27 1000.6 1000.6 0.0
31/01:46pm 35.6 27.4 0.6 11 17.5 N 33 54 18 29 1000.7 1000.7 0.0
31/01:30pm 35.3 27.1 0.4 11 17.5 N 33 50 18 27 1000.9 1000.9 0.0
31/01:00pm 33.3 25.1 0.1 12 16.3 N 33 44 18 24 1001.5 1001.5 0.0
31/12:30pm 33.3 25.2 1.2 13 16.1 N 33 46 18 25 1002.2 1002.2 0.0
31/12:00pm 33.2 25.1 1.1 13 16.0 N 33 46 18 25 1003.0 1003.0 0.0
31/11:30am 32.5 24.5 1.6 14 15.5 N 33 48 18 26 1003.6 1003.6 0.0
31/11:00am 30.6 23.8 1.0 15 14.4 N 26 37 14 20 1004.3 1004.3 0.0
31/10:30am 29.5 22.9 1.9 17 13.6 NNE 26 35 14 19 1004.9 1004.9 0.0
31/10:00am 27.4 20.2 3.2 21 12.0 NNE 30 41 16 22 1005.5 1005.5 0.0
31/09:30am 25.0 18.1 4.7 27 10.2 NNE 30 43 16 23 1006.2 1006.2 0.0
31/09:00am 23.3 17.0 5.7 32 8.9 NNE 28 37 15 20 1006.5 1006.5 0.0
31/08:30am 20.5 15.6 6.8 41 7.0 NNE 22 30 12 16 1006.8 1006.8 0.0
31/08:00am 18.5 14.1 7.6 49 5.5 NE 20 33 11 18 1006.9 1006.9 0.0
31/07:30am 16.3 12.2 7.8 57 4.3 NE 19 22 10 12 1007.1 1007.1 0.0
31/07:00am 15.2 11.5 8.0 62 3.6 NE 17 20 9 11 1007.1 1007.1 0.0
31/06:30am 15.1 11.8 8.1 63 3.5 NNE 15 22 8 12 1007.8 1007.8 0.0
31/06:00am 14.0 11.5 8.2 68 2.9 NNE 11 15 6 8 1007.8 1007.8 0.0
31/05:30am 14.2 11.4 8.6 69 2.8 NNE 13 17 7 9 1007.8 1007.8 0.0
31/05:00am 14.0 11.6 8.6 70 2.7 NNE 11 15 6 8 1008.2 1008.2 0.0
31/04:30am 13.6 11.5 8.2 70 2.7 ENE 9 15 5 8 1008.1 1008.1 0.0
31/04:00am 13.5 10.7 8.4 71 2.5 E 13 19 7 10 1008.1 1008.1 0.0
31/03:30am 12.8 10.2 7.7 71 2.5 E 11 15 6 8 1008.5 1008.5 0.0
31/03:00am 10.9 8.5 6.8 76 1.9 E 9 11 5 6 1009.2 1009.2 0.0
31/02:30am 9.7 7.5 6.1 78 1.7 SE 7 9 4 5 1009.8 1009.8 0.0
31/02:00am 9.5 7.6 5.1 74 2.0 ESE 4 6 2 3 1010.3 1010.3 0.0
31/01:30am 9.4 7.1 5.0 74 2.0 SSE 6 7 3 4 1010.9 1010.9 0.0
31/01:00am 9.2 7.0 5.2 76 1.8 SSE 6 6 3 3 1011.5 1011.5 0.0
31/12:30am 10.3 8.2 5.7 73 2.1 SSE 6 6 3 3 1011.8 1011.8 0.0
31/12:00am 11.3 9.3 6.4 72 2.3 ESE 6 7 3 4 1012.1 1012.1 0.0
 
Date/Time
CDT
Temp
°C
App
Temp
°C
Dew
Point
Rel
Hum
%
Delta-T
°C
Wind Press
QNH
hPa
Press
MSL
hPa
Rain
since 9 am
mm
Dir
 
Spd
km/h
Gust
km/h
Spd
kts
Gust
kts
30/11:30pm 10.6 8.4 5.4 70 2.4 ESE 6 7 3 4 1012.5 1012.5 0.0
30/11:00pm 10.8 8.6 5.3 69 2.5 ESE 6 6 3 3 1012.7 1012.7 0.0
30/10:30pm 12.1 10.1 6.4 68 2.7 S 6 7 3 4 1013.1 1013.1 0.0
30/10:00pm 12.3 10.0 5.7 64 3.1 S 7 9 4 5 1013.0 1013.0 0.0
30/09:30pm 13.8 11.7 6.7 62 3.4 S 7 11 4 6 1013.0 1013.0 0.0
30/09:00pm 13.6 10.6 6.2 61 3.5 S 11 13 6 7 1012.9 1012.9 0.0
30/08:30pm 14.9 12.8 6.5 57 4.1 S 7 9 4 5 1012.6 1012.6 0.0
30/08:00pm 16.0 13.1 6.4 53 4.7 SSW 11 15 6 8 1012.5 1012.5 0.0
30/07:30pm 18.6 15.3 6.4 45 6.1 SSW 13 17 7 9 1012.4 1012.4 0.0
30/07:00pm 20.7 17.1 6.6 40 7.1 SSW 15 20 8 11 1012.4 1012.4 0.0
30/06:30pm 22.1 18.0 6.3 36 8.0 SSW 17 22 9 12 1012.2 1012.2 0.0
30/06:00pm 23.6 19.5 6.4 33 8.8 SW 17 22 9 12 1012.2 1012.2 0.0
30/05:30pm 24.4 20.7 6.2 31 9.4 SSW 15 22 8 12 1012.0 1012.0 0.0
30/05:00pm 25.3 23.0 5.5 28 10.1 SW 7 17 4 9 1012.2 1012.2 0.0
30/04:30pm 25.1 22.3 5.3 28 10.1 SW 9 17 5 9 1012.4 1012.4 0.0
30/04:00pm 25.2 22.8 5.4 28 10.1 WSW 7 22 4 12 1012.6 1012.6 0.0
30/03:30pm 24.8 22.3 6.5 31 9.5 SW 9 17 5 9 1012.7 1012.7 0.0
30/03:00pm 24.1 21.6 6.4 32 9.1 SW 9 19 5 10 1013.2 1013.2 0.0
30/02:30pm 23.6 21.2 6.8 34 8.7 SW 9 19 5 10 1013.7 1013.7 0.0
30/02:00pm 22.6 20.4 6.0 34 8.4 SSW 7 24 4 13 1014.1 1014.1 0.0
30/01:30pm 22.5 19.9 6.3 35 8.2 W 9 17 5 9 1014.5 1014.5 0.0
30/01:00pm 21.1 18.5 6.2 38 7.5 W 9 19 5 10 1014.8 1014.8 0.0
30/12:30pm 20.5 18.1 7.2 42 6.8 WSW 9 17 5 9 1015.2 1015.2 0.0
30/12:00pm 20.2 18.6 7.9 45 6.4 S 6 13 3 7 1015.7 1015.7 0.0
30/11:30am 19.4 17.2 7.8 47 5.9 W 9 17 5 9 1016.3 1016.3 0.0
30/11:00am 18.1 15.1 7.5 50 5.4 WSW 13 26 7 14 1016.3 1016.3 0.0
30/10:30am 18.3 16.5 8.0 51 5.3 W 7 15 4 8 1016.5 1016.5 0.0
30/10:00am 17.3 15.5 7.9 54 4.8 W 7 17 4 9 1016.6 1016.6 0.0
30/09:30am 17.1 14.6 8.3 56 4.5 W 11 15 6 8 1016.6 1016.6 0.0
30/09:00am 16.0 14.3 7.7 58 4.2 NW 6 11 3 6 1016.7 1016.7 0.0
30/08:30am 15.1 13.4 9.7 70 2.8 NNE 9 11 5 6 1016.5 1016.5 0.0
30/08:00am 13.6 12.6 10.4 81 1.7 NNE 6 7 3 4 1017.0 1017.0 0.0
30/07:30am 12.2 11.5 9.9 86 1.2 NNW 4 6 2 3 1016.8 1016.8 0.0
30/07:00am 11.2 10.7 9.5 89 0.9 N 2 6 1 3 1016.5 1016.5 0.0
30/06:30am 10.6 10.1 9.2 91 0.7 N 2 4 1 2 1016.4 1016.4 0.0
30/06:00am 10.2 9.2 8.8 91 0.7 N 4 7 2 4 1015.8 1015.8 0.0
30/05:30am 10.1 9.4 8.5 90 0.8 NNE 2 9 1 5 1015.5 1015.5 0.0
30/05:00am 10.1 8.6 8.5 90 0.8 NNE 6 11 3 6 1015.5 1015.5 0.0
30/04:30am 10.2 8.8 9.0 92 0.6 WSW 6 7 3 4 1016.1 1016.1 0.0
30/04:00am 9.7 8.6 8.6 93 0.5 SW 4 7 2 4 1015.7 1015.7 0.0
30/03:30am 9.3 8.6 8.4 94 0.4 SW 2 9 1 5 1015.5 1015.5 0.0
30/03:00am 7.2 5.5 6.1 93 0.5 N 4 6 2 3 1015.4 1015.4 0.0
30/02:30am 6.6 4.4 5.4 92 0.5 N 6 7 3 4 1015.7 1015.7 0.0
30/02:00am 6.8 4.7 5.7 93 0.5 NNE 6 7 3 4 1015.9 1015.9 0.0
30/01:30am 6.7 5.0 5.7 93 0.4 N 4 6 2 3 1016.4 1016.4 0.0
30/01:00am 5.6 3.9 4.1 90 0.6 WNW 2 4 1 2 1016.8 1016.8 0.0
30/12:30am 7.8 5.8 6.4 91 0.6 SW 6 7 3 4 1017.0 1017.0 0.0
30/12:00am 7.8 5.8 6.3 90 0.7 WSW 6 7 3 4 1017.2 1017.2 0.0
 
Date/Time
CDT
Temp
°C
App
Temp
°C
Dew
Point
Rel
Hum
%
Delta-T
°C
Wind Press
QNH
hPa
Press
MSL
hPa
Rain
since 9 am
mm
Dir
 
Spd
km/h
Gust
km/h
Spd
kts
Gust
kts
29/11:30pm 9.9 8.3 8.2 89 0.8 SSW 6 7 3 4 1017.3 1017.3 0.0
29/11:00pm 9.4 7.6 7.3 87 1.0 SW 6 6 3 3 1017.2 1017.2 0.0
29/10:30pm 11.1 9.5 8.8 86 1.1 SW 7 9 4 5 1017.5 1017.5 0.0
29/10:00pm 11.2 9.5 8.4 83 1.4 SSW 7 11 4 6 1017.4 1017.4 0.0
29/09:30pm 12.3 10.6 8.4 77 1.9 SSW 7 11 4 6 1017.4 1017.4 0.0
29/09:00pm 14.4 12.5 9.2 71 2.7 SW 9 13 5 7 1017.4 1017.4 0.0
29/08:30pm 15.0 12.3 9.1 68 3.0 SW 13 19 7 10 1017.1 1017.1 0.0
29/08:00pm 15.6 12.9 9.1 65 3.3 SW 13 19 7 10 1017.0 1017.0 0.0
29/07:30pm 16.2 12.3 8.7 61 3.8 SW 19 28 10 15 1016.7 1016.7 0.0
29/07:00pm 17.1 13.0 8.5 57 4.4 SW 20 26 11 14 1016.5 1016.5 0.0
29/06:30pm 18.5 14.0 8.7 53 5.1 SW 22 30 12 16 1016.3 1016.3 0.0
29/06:00pm 19.2 14.3 8.5 50 5.6 SW 24 33 13 18 1015.9 1015.9 0.0
29/05:30pm 20.6 16.2 8.9 47 6.2 SW 22 30 12 16 1015.9 1015.9 0.0
29/05:00pm 22.1 18.1 8.9 43 7.0 SW 20 32 11 17 1015.8 1015.8 0.0
29/04:30pm 22.8 18.8 8.9 41 7.4 WSW 20 28 11 15 1015.6 1015.6 0.0
29/04:00pm 23.3 19.1 9.7 42 7.4 WSW 22 30 12 16 1015.7 1015.7 0.0
29/03:30pm 24.3 20.6 7.9 35 8.7 WNW 17 24 9 13 1015.7 1015.7 0.0
29/03:00pm 23.1 20.5 7.6 37 8.1 WNW 11 24 6 13 1016.0 1016.0 0.0
29/02:30pm 22.6 20.1 8.3 40 7.5 NW 11 20 6 11 1016.5 1016.5 0.0
29/02:00pm 22.6 19.7 8.0 39 7.7 W 13 24 7 13 1016.9 1016.9 0.0
29/01:30pm 21.6 17.6 8.1 42 7.1 N 19 26 10 14 1017.4 1017.4 0.0
29/01:00pm 19.9 17.1 8.6 48 5.9 NW 13 22 7 12 1017.8 1017.8 0.0
29/12:30pm 19.4 15.9 8.7 50 5.6 NW 17 24 9 13 1018.2 1018.2 0.0
29/12:00pm 18.5 16.1 8.5 52 5.2 NNW 11 19 6 10 1018.7 1018.7 0.0
29/11:30am 17.8 15.1 8.9 56 4.6 NW 13 19 7 10 1019.2 1019.2 0.0
29/11:00am 17.5 14.8 8.9 57 4.5 NW 13 20 7 11 1019.6 1019.6 0.0
29/10:30am 17.1 13.9 8.3 56 4.5 NW 15 24 8 13 1019.8 1019.8 0.0
29/10:00am 16.1 13.8 9.1 63 3.6 WNW 11 15 6 8 1020.0 1020.0 0.0
29/09:30am 15.9 12.7 8.4 61 3.8 WNW 15 20 8 11 1019.9 1019.9 0.0
29/09:00am 16.1 13.2 8.1 59 4.0 WNW 13 19 7 10 1020.0 1020.0 0.4
29/08:30am 14.6 12.7 9.2 70 2.8 WNW 9 15 5 8 1019.9 1019.9 0.4
29/08:00am 13.7 12.5 9.6 76 2.1 NNW 6 7 3 4 1019.8 1019.8 0.4
29/07:30am 12.2 10.7 9.2 82 1.5 N 7 9 4 5 1019.8 1019.8 0.4
29/07:00am 9.5 7.8 7.6 88 0.9 N 6 6 3 3 1019.7 1019.7 0.4

Other Formats:

Comma delimited format used in spreadsheet applications
http://www.bom.gov.au/fwo/IDS60801/IDS60801.95815.axf

JavaScript Object Notation format (JSON) in row-major order
http://www.bom.gov.au/fwo/IDS60801/IDS60801.95815.json